Newville, PA (17241)

10:57 AM EST on February 01, 2015 (GMT -0500)
Horse Killer Road | Change Station
CLOSE
Current Station
Personal Weather Station
Location: Shippensburg, PA
Elevation: 909 ft
Nearby Weather Stations
Active Advisory: Winter Storm Warning

Elev 909 ft 40.07 °N, 77.39 °W | Updated 7 minutes ago

Overcast
Overcast
34.6 °F
Feels Like 35 °F
N
2.8
Wind Variable Wind from North
Gusts 4.6 mph

Today
High -- | Low -- °F
--% Chance of Precip.
Yesterday
High -- | Low -- °F
Precip. -- in
7:18 AM 5:28 PM
Waxing Gibbous, 95% visible
Pressure 30.26 in
Visibility 10.0 miles
Clouds Overcast 4700 ft
Windchill 35 °F
Dew Point 21 °F
Humidity 55%
Rainfall 0.00 in
Snow Depth Not available.
UV 1 out of 12
Pollen .10 out of 12
Air Quality Not available.
Flu Activity Not available.
METAR KCXY 011456Z 00000KT 10SM OVC047 M01/M08 A3024 RMK AO2 SLP246 T10111083 50001

More Conditions Fewer Conditions

Pressure 30.26 in
Visibility 10.0 miles
Clouds Overcast 4700 ft
Windchill 35 °F
Dew Point 21 °F
Humidity 55%
Rainfall 0.00 in
Snow Depth Not available.
UV 1 out of 12
Pollen .10 out of 12
Air Quality Not available.
Flu Activity Not available.
METAR KCXY 011456Z 00000KT 10SM OVC047 M01/M08 A3024 RMK AO2 SLP246 T10111083 50001

More Conditions Fewer Conditions

Nowcast | as of 10:36 am EST on February 1, 2015

Patchy light snow will continue to develop across central Pennsylvania late this morning...well ahead of approaching low pressure over the mid-Mississippi Valley. Any accumulation this morning should be light...with most locations receiving little more than a dusting through midday.

×

10-Day Weather Forecast

Almanac

Astronomy

Feb. 01, 2015 Rise Set
Actual Time
Civil Twilight
Nautical Twilight
Astronomical Twilight
Moon
Length of Visible Light
Length of Day
Tomorrow will be .
, % of the Moon is Illuminated

Today's Extremes

State Highs State Lows

Community

WunderPhotos

Upload Photos

1,792,362 photos uploaded!

WunderBlogs® & News

Nearby

Air Quality

  Air Quality AQ Index Pollutant
Not available.

Snow Depth

Station Depth Elevation

Earthquake Activity

City Distance Mag. Time & Date
Minimum magnitude displayed is 2.5.

Coastal Water Temperatures

Place Temperature

Nearby Weather Stations